CheckWX is a tool to help pilots better visualize weather data.  It is not intended as a substitute for an official pre-flight weather briefing.

21:28:34 UTC

UIII TAF
Irkutsk Airport
Irkutsk, Russian Federation
TAF UIII 162000Z 1621/1721 16003MPS 9999 SCT020CB TEMPO 1621/1701 2000 BR

Jun-16@
21:00 UTC

Jun-16 @ 21:00 UTC

Jun-17@
21:00 UTC

Jun-17 @ 21:00 UTC

TAF UIII 162000Z 1621/1721 16003MPS 9999 SCT020CB
Wind
  • 160° at 6 KTS
Cloud Levels
  • Scattered at 2,000' AGL

Jun-16@
21:00 UTC

Jun-16 @ 21:00 UTC

Jun-17@
01:00 UTC

Jun-17 @ 01:00 UTC

TEMPO 1621/1701 2000 BR

Temporary

Temporary Changes expected for less than half the time period

Conditions
Mist